Brunswick, Michigan
Current Conditions -  °F | °C
As of 2:54 AM on Thursday 27 Nov 2014 (Local Time) from KFFX Reporting Station
Haze Haze  
Wind Chill: 28°   Ceiling: 2300
Heat Index: 28°   Visibility: 5mi
Dew Point: 27°   Wind: 0mph
Humidity: 95%   Direction: NA
Pressure: 30.15"   Gusts: NA
Location:  43.452°N, 86.1285°W
Report Text: KFFX 270754Z AUTO 00000KT 5SM BR OVC023 M02/M03 A3015 RMK AO2 T10231030
Loading
Personal Weather Stations






























Interactive Weather Map New forecast layout! Learn more

10-Day Weather Forecast

Advertisements
Track Severe Weather on mobile